Current Weather

Cambridge

Cambridge, United Kingdom (EGSC)

Report from: Friday, February 23, 2024 5:20 PM GMT
Current time: Friday, February 23, 2024 9:19 PM GMT

Nearby weather – Weather history – Daily summaries
Weather forecast

Temperature6.0°C (42.8°F)
Wind chill3.3°C (38.0°F)
Dew point2.0°C (35.6°F)
Winds 7 kts (3.6 m/s, 8.1 mph) West (260°)
Visibility6.2 mi. (10 km)
Clouds Few clouds 4,000 ft. (1,219 m)
Altimeter29.15 in.Hg (987 mB)
Relative humidity75 %
Density altitude-78 ft. (-24 m)
Flight conditions Visual Meteorological Conditions
Raw dataEGSC 231720Z 26007KT 9999 FEW040 06/02 Q0987
An error has occurred. This application may no longer respond until reloaded. Reload 🗙